Time;durP1;ratioP1;P1;durP2;ratioP2;P2;SDS_P1;SDS_P2;PMS_P1;PMS_P2;Temp;Humidity;BMP_temperature;BMP_pressure;BME280_temperature;BME280_humidity;BME280_pressure;Samples;Min_cycle;Max_cycle;Signal;HPM_P1;HPM_P2
2022/07/24 00:00:42;;;;;;;11.80;7.20;;;;;;;;;;5056583;28;20049;-77
2022/07/24 00:03:28;;;;;;;10.48;6.90;;;;;;;;;;5077800;28;20041;-78
2022/07/24 00:06:14;;;;;;;12.25;6.57;;;;;;;;;;5055900;28;20044;-79
2022/07/24 00:08:59;;;;;;;10.13;6.25;;;;;;;;;;5054857;28;20053;-80
2022/07/24 00:11:45;;;;;;;9.30;6.80;;;;;;;;;;5055113;28;20037;-80
2022/07/24 00:14:30;;;;;;;9.93;6.93;;;;;;;;;;5055117;28;20497;-80
2022/07/24 00:17:16;;;;;;;13.00;6.47;;;;;;;;;;5054788;28;20405;-80
2022/07/24 00:20:03;;;;;;;8.00;6.10;;;;;;;;;;5055020;28;20486;-80
2022/07/24 00:22:49;;;;;;;9.95;6.53;;;;;;;;;;5061539;28;20502;-80
2022/07/24 00:25:34;;;;;;;12.45;7.13;;;;;;;;;;5054788;28;20041;-80
2022/07/24 00:28:20;;;;;;;12.07;6.95;;;;;;;;;;5061536;28;20037;-80
2022/07/24 00:31:05;;;;;;;8.18;6.28;;;;;;;;;;5061805;28;20045;-79
2022/07/24 00:33:50;;;;;;;11.45;7.97;;;;;;;;;;5061443;28;20044;-79
2022/07/24 00:36:36;;;;;;;10.73;6.80;;;;;;;;;;5054676;28;20497;-79
2022/07/24 00:39:22;;;;;;;12.77;6.95;;;;;;;;;;5054740;28;20394;-79
2022/07/24 00:42:07;;;;;;;11.23;7.05;;;;;;;;;;5054535;28;20045;-80
2022/07/24 00:44:53;;;;;;;12.20;6.50;;;;;;;;;;5053887;28;20057;-80
2022/07/24 00:47:38;;;;;;;9.35;6.30;;;;;;;;;;5060881;28;20393;-80
2022/07/24 00:50:25;;;;;;;9.43;6.00;;;;;;;;;;5054227;28;20048;-80
2022/07/24 00:53:11;;;;;;;9.77;6.47;;;;;;;;;;5060949;28;20037;-79
2022/07/24 00:55:57;;;;;;;7.82;6.30;;;;;;;;;;5060667;28;20045;-80
2022/07/24 00:58:42;;;;;;;9.80;6.68;;;;;;;;;;5053831;28;20421;-80
2022/07/24 01:01:28;;;;;;;6.95;6.20;;;;;;;;;;5060511;28;20049;-79
2022/07/24 01:04:13;;;;;;;7.10;6.40;;;;;;;;;;5054980;28;20044;-80
2022/07/24 01:06:59;;;;;;;9.90;6.18;;;;;;;;;;5060966;28;20044;-81
2022/07/24 01:09:44;;;;;;;9.27;6.32;;;;;;;;;;5060493;28;20041;-80
2022/07/24 01:12:32;;;;;;;11.05;5.97;;;;;;;;;;5054008;28;20045;-80
2022/07/24 01:15:17;;;;;;;10.52;6.20;;;;;;;;;;5054316;28;20045;-80
2022/07/24 01:18:03;;;;;;;15.13;6.43;;;;;;;;;;5053833;28;20393;-81
2022/07/24 01:20:49;;;;;;;13.95;6.15;;;;;;;;;;5054087;28;20052;-80
2022/07/24 01:23:35;;;;;;;11.05;6.25;;;;;;;;;;5060445;28;20049;-81
2022/07/24 01:26:21;;;;;;;8.20;6.72;;;;;;;;;;5054042;28;20041;-80
2022/07/24 01:29:06;;;;;;;9.73;6.70;;;;;;;;;;5039096;28;20049;-80
2022/07/24 01:31:52;;;;;;;8.52;6.50;;;;;;;;;;5053683;28;20489;-80
2022/07/24 01:34:37;;;;;;;14.40;6.70;;;;;;;;;;5054010;28;20041;-80
2022/07/24 01:37:23;;;;;;;10.90;6.57;;;;;;;;;;5053750;28;20486;-81
2022/07/24 01:40:09;;;;;;;7.28;6.22;;;;;;;;;;5054077;28;20397;-80
2022/07/24 01:42:54;;;;;;;12.55;6.63;;;;;;;;;;5053566;28;20421;-80
2022/07/24 01:45:40;;;;;;;13.52;6.53;;;;;;;;;;5053402;28;20049;-80
2022/07/24 01:48:25;;;;;;;10.82;7.03;;;;;;;;;;5053513;28;20037;-80
2022/07/24 01:51:11;;;;;;;8.75;6.57;;;;;;;;;;5053593;28;20033;-79
2022/07/24 01:53:56;;;;;;;10.00;6.47;;;;;;;;;;5054472;28;20045;-79
2022/07/24 01:56:42;;;;;;;10.32;7.25;;;;;;;;;;5053708;28;20045;-79
2022/07/24 01:59:27;;;;;;;11.25;6.57;;;;;;;;;;5053187;28;20049;-79
2022/07/24 02:02:13;;;;;;;9.10;6.75;;;;;;;;;;5052991;28;20045;-79
2022/07/24 02:04:59;;;;;;;8.95;7.03;;;;;;;;;;5053353;28;20048;-79
2022/07/24 02:07:45;;;;;;;11.77;6.32;;;;;;;;;;5064030;28;20041;-81
2022/07/24 02:10:30;;;;;;;10.13;6.03;;;;;;;;;;5056937;28;20041;-80
2022/07/24 02:13:16;;;;;;;10.95;6.65;;;;;;;;;;5057193;28;20045;-82
2022/07/24 02:16:01;;;;;;;8.82;5.97;;;;;;;;;;5057433;28;20045;-81
2022/07/24 02:18:47;;;;;;;11.10;6.60;;;;;;;;;;5063742;28;20037;-79
2022/07/24 02:21:33;;;;;;;11.02;6.18;;;;;;;;;;5077791;28;20045;-80
2022/07/24 02:24:18;;;;;;;7.70;6.38;;;;;;;;;;5057514;28;20136;-80
2022/07/24 02:27:03;;;;;;;9.50;6.07;;;;;;;;;;5056716;28;20049;-80
2022/07/24 02:29:49;;;;;;;12.50;6.30;;;;;;;;;;5063382;28;20048;-80
2022/07/24 02:32:34;;;;;;;7.47;5.90;;;;;;;;;;5042041;28;20040;-80
2022/07/24 02:35:20;;;;;;;7.43;6.22;;;;;;;;;;5057078;28;20477;-81
2022/07/24 02:38:06;;;;;;;7.80;6.20;;;;;;;;;;5057147;28;20049;-80
2022/07/24 02:40:51;;;;;;;10.57;6.78;;;;;;;;;;5057272;28;20044;-80
2022/07/24 02:43:37;;;;;;;10.80;6.43;;;;;;;;;;5056683;28;20498;-80
2022/07/24 02:46:23;;;;;;;8.70;6.78;;;;;;;;;;5063605;28;20398;-80
2022/07/24 02:49:08;;;;;;;8.35;6.68;;;;;;;;;;5063283;28;20037;-80
2022/07/24 02:51:54;;;;;;;7.15;6.53;;;;;;;;;;5056921;28;20041;-80
2022/07/24 02:54:39;;;;;;;9.45;6.80;;;;;;;;;;5063476;28;20052;-80
2022/07/24 02:57:25;;;;;;;8.73;6.43;;;;;;;;;;5047984;28;20053;-80
2022/07/24 03:00:13;;;;;;;8.52;7.07;;;;;;;;;;5056832;28;20045;-78
2022/07/24 03:03:01;;;;;;;8.80;6.60;;;;;;;;;;5056588;28;20049;-78
2022/07/24 03:05:47;;;;;;;12.80;6.82;;;;;;;;;;5056527;28;20486;-78
2022/07/24 03:08:32;;;;;;;10.02;7.18;;;;;;;;;;5056860;28;20045;-79
2022/07/24 03:11:18;;;;;;;12.80;6.85;;;;;;;;;;5057961;28;20048;-78
2022/07/24 03:14:04;;;;;;;7.63;6.57;;;;;;;;;;5063311;28;20489;-78
2022/07/24 03:16:49;;;;;;;10.18;6.85;;;;;;;;;;5055569;28;20045;-79
2022/07/24 03:19:35;;;;;;;15.48;7.80;;;;;;;;;;5056171;28;20049;-79
2022/07/24 03:22:20;;;;;;;11.05;7.47;;;;;;;;;;5056354;28;20044;-80
2022/07/24 03:25:06;;;;;;;11.18;7.20;;;;;;;;;;5063218;28;20049;-79
2022/07/24 03:27:52;;;;;;;9.32;7.65;;;;;;;;;;5062838;28;20049;-78
2022/07/24 03:30:37;;;;;;;14.68;7.32;;;;;;;;;;5062465;28;20398;-79
2022/07/24 03:33:23;;;;;;;9.23;7.35;;;;;;;;;;5063113;28;20033;-80
2022/07/24 03:36:09;;;;;;;8.50;7.28;;;;;;;;;;5056390;28;20045;-79
2022/07/24 03:38:55;;;;;;;8.00;7.20;;;;;;;;;;5056047;28;20405;-80
2022/07/24 03:41:41;;;;;;;10.23;7.38;;;;;;;;;;5055983;28;20049;-82
2022/07/24 03:44:27;;;;;;;12.43;7.55;;;;;;;;;;5055484;28;20048;-79
2022/07/24 03:47:12;;;;;;;9.82;7.32;;;;;;;;;;5062509;28;20044;-79
2022/07/24 03:49:58;;;;;;;12.40;7.70;;;;;;;;;;5055645;28;20045;-79
2022/07/24 03:52:43;;;;;;;31.33;9.50;;;;;;;;;;5055809;28;20041;-81
2022/07/24 03:55:29;;;;;;;16.33;8.93;;;;;;;;;;5062383;28;20045;-79
2022/07/24 03:58:15;;;;;;;17.65;8.20;;;;;;;;;;5055429;28;20041;-80
2022/07/24 04:01:02;;;;;;;11.55;7.93;;;;;;;;;;5055676;28;20049;-79
2022/07/24 04:03:48;;;;;;;14.45;7.90;;;;;;;;;;5056033;28;20045;-79
2022/07/24 04:06:34;;;;;;;11.30;8.00;;;;;;;;;;5055739;28;20040;-80
2022/07/24 04:09:20;;;;;;;13.25;8.23;;;;;;;;;;5055812;28;20048;-79
2022/07/24 04:12:06;;;;;;;13.88;7.95;;;;;;;;;;5055481;28;20037;-80
2022/07/24 04:14:51;;;;;;;14.27;8.73;;;;;;;;;;5055512;28;20045;-80
2022/07/24 04:17:43;;;;;;;14.20;8.70;;;;;;;;;;5055590;28;20044;-80
2022/07/24 04:20:29;;;;;;;13.68;8.48;;;;;;;;;;5055261;28;20037;-80
2022/07/24 04:23:14;;;;;;;12.02;8.40;;;;;;;;;;5055261;28;20041;-81
2022/07/24 04:26:00;;;;;;;17.55;9.38;;;;;;;;;;5054847;28;20044;-80
2022/07/24 04:28:45;;;;;;;16.92;9.30;;;;;;;;;;5055269;28;20048;-80
2022/07/24 04:31:31;;;;;;;15.55;8.43;;;;;;;;;;5055254;28;20044;-79
2022/07/24 04:34:16;;;;;;;11.77;7.75;;;;;;;;;;5054955;28;20486;-80
2022/07/24 04:37:02;;;;;;;12.43;8.10;;;;;;;;;;5066121;28;20037;-79
2022/07/24 04:39:48;;;;;;;16.42;7.97;;;;;;;;;;5058181;28;20049;-80
2022/07/24 04:42:33;;;;;;;10.48;7.70;;;;;;;;;;5061988;28;20045;-80
2022/07/24 04:45:19;;;;;;;11.68;8.23;;;;;;;;;;5055049;28;20041;-79
2022/07/24 04:48:05;;;;;;;10.68;7.97;;;;;;;;;;5054725;28;20108;-79
2022/07/24 04:50:50;;;;;;;13.07;8.20;;;;;;;;;;5054469;28;20049;-78
2022/07/24 04:53:36;;;;;;;16.67;8.40;;;;;;;;;;5054540;28;20493;-79
2022/07/24 04:56:21;;;;;;;14.55;8.40;;;;;;;;;;5054823;28;20036;-78
2022/07/24 04:59:07;;;;;;;12.35;8.07;;;;;;;;;;5056052;28;20048;-78
2022/07/24 05:01:52;;;;;;;19.77;8.05;;;;;;;;;;5064767;28;20041;-80
2022/07/24 05:04:38;;;;;;;15.32;7.10;;;;;;;;;;5058114;28;20037;-80
2022/07/24 05:07:23;;;;;;;10.23;7.85;;;;;;;;;;5065491;28;20482;-79
2022/07/24 05:10:09;;;;;;;9.90;7.47;;;;;;;;;;5057938;28;20048;-81
2022/07/24 05:12:55;;;;;;;12.38;7.70;;;;;;;;;;5064609;28;20045;-83
2022/07/24 05:15:40;;;;;;;10.40;7.38;;;;;;;;;;5059582;28;20052;-80
2022/07/24 05:18:26;;;;;;;10.95;7.10;;;;;;;;;;5064497;28;20045;-80
2022/07/24 05:21:11;;;;;;;14.60;7.80;;;;;;;;;;5054501;28;20061;-80
2022/07/24 05:23:58;;;;;;;11.90;7.40;;;;;;;;;;5053998;28;20048;-80
2022/07/24 05:26:42;;;;;;;11.90;6.60;;;;;;;;;;5060782;28;20037;-81
2022/07/24 05:29:27;;;;;;;12.07;7.53;;;;;;;;;;5053574;28;20045;-80
2022/07/24 05:32:13;;;;;;;15.50;7.45;;;;;;;;;;5060765;28;20389;-77
2022/07/24 05:34:58;;;;;;;15.32;8.25;;;;;;;;;;5060776;28;20037;-79
2022/07/24 05:37:44;;;;;;;13.95;7.32;;;;;;;;;;5053829;28;20041;-80
2022/07/24 05:40:29;;;;;;;15.50;7.32;;;;;;;;;;5053355;28;20057;-80
2022/07/24 05:43:16;;;;;;;11.55;6.60;;;;;;;;;;5053295;28;20045;-80
2022/07/24 05:46:03;;;;;;;17.40;6.82;;;;;;;;;;5053538;28;20478;-79
2022/07/24 05:48:48;;;;;;;20.00;7.47;;;;;;;;;;5053855;28;20041;-81
2022/07/24 05:51:34;;;;;;;13.98;7.30;;;;;;;;;;5053552;28;20044;-80
2022/07/24 05:54:19;;;;;;;11.13;6.25;;;;;;;;;;5053695;28;20044;-77
2022/07/24 05:57:05;;;;;;;14.55;6.72;;;;;;;;;;5053520;28;20041;-77
2022/07/24 05:59:51;;;;;;;18.42;7.10;;;;;;;;;;5053534;28;20053;-80
2022/07/24 06:02:36;;;;;;;20.55;7.20;;;;;;;;;;5060520;28;20040;-80
2022/07/24 06:05:22;;;;;;;21.85;7.75;;;;;;;;;;5053480;28;20041;-79
2022/07/24 06:08:08;;;;;;;14.20;6.47;;;;;;;;;;5053639;28;20041;-81
2022/07/24 06:10:54;;;;;;;16.17;7.18;;;;;;;;;;5053368;28;20045;-80
2022/07/24 06:13:39;;;;;;;22.02;7.60;;;;;;;;;;5053231;28;20045;-82
2022/07/24 06:16:25;;;;;;;14.32;7.35;;;;;;;;;;5059882;28;20045;-80
2022/07/24 06:19:11;;;;;;;25.90;8.52;;;;;;;;;;5053357;28;20405;-81
2022/07/24 06:21:56;;;;;;;14.18;7.43;;;;;;;;;;5059873;28;20049;-80
2022/07/24 06:24:42;;;;;;;19.55;8.10;;;;;;;;;;5065083;28;20049;-83
2022/07/24 06:27:27;;;;;;;21.08;8.15;;;;;;;;;;5054227;28;20041;-86
2022/07/24 06:30:14;;;;;;;16.58;7.68;;;;;;;;;;5038641;28;20041;-85
2022/07/24 06:33:00;;;;;;;15.88;7.93;;;;;;;;;;5053321;28;20490;-86
2022/07/24 06:35:45;;;;;;;15.82;7.38;;;;;;;;;;5054916;28;20041;-83
2022/07/24 06:38:31;;;;;;;26.67;8.13;;;;;;;;;;5044288;28;20045;-84
2022/07/24 06:41:22;;;;;;;26.67;8.05;;;;;;;;;;5053357;28;20045;-81
2022/07/24 06:44:10;;;;;;;14.88;7.80;;;;;;;;;;5058556;28;20482;-84
2022/07/24 06:46:55;;;;;;;22.27;7.85;;;;;;;;;;5053557;28;20041;-84
2022/07/24 06:49:41;;;;;;;15.77;7.65;;;;;;;;;;5053121;28;20053;-85
2022/07/24 06:52:26;;;;;;;17.67;7.88;;;;;;;;;;5039323;28;20383;-85
2022/07/24 06:55:13;;;;;;;19.25;8.35;;;;;;;;;;5075793;28;20049;-86
2022/07/24 06:57:58;;;;;;;22.00;7.47;;;;;;;;;;5073277;28;20041;-88
2022/07/24 07:00:43;;;;;;;16.35;6.95;;;;;;;;;;5055717;28;20049;-85
2022/07/24 07:03:29;;;;;;;20.30;7.22;;;;;;;;;;5041574;28;20045;-84
2022/07/24 07:06:15;;;;;;;18.60;7.20;;;;;;;;;;5056773;28;20053;-83
2022/07/24 07:09:01;;;;;;;27.15;8.38;;;;;;;;;;5058387;28;20045;-85
2022/07/24 07:11:47;;;;;;;10.25;6.55;;;;;;;;;;5047358;28;20048;-81
2022/07/24 07:14:32;;;;;;;15.30;6.95;;;;;;;;;;5062005;28;20482;-80
2022/07/24 07:17:18;;;;;;;17.35;7.80;;;;;;;;;;5056258;28;20049;-80
2022/07/24 07:20:04;;;;;;;15.35;7.18;;;;;;;;;;5057086;28;20049;-80
2022/07/24 07:22:49;;;;;;;8.05;5.72;;;;;;;;;;5055418;28;20041;-80
2022/07/24 07:25:35;;;;;;;8.57;6.95;;;;;;;;;;5055803;28;20395;-81
2022/07/24 07:28:21;;;;;;;9.75;6.47;;;;;;;;;;5062614;28;20053;-81
2022/07/24 07:31:07;;;;;;;15.93;6.57;;;;;;;;;;5057253;28;20041;-80
2022/07/24 07:33:52;;;;;;;13.63;7.25;;;;;;;;;;5062380;28;20048;-81
2022/07/24 07:36:38;;;;;;;10.20;6.28;;;;;;;;;;5056228;28;20045;-78
2022/07/24 07:39:24;;;;;;;14.60;7.53;;;;;;;;;;5062685;28;20494;-80
2022/07/24 07:42:09;;;;;;;12.85;7.30;;;;;;;;;;5055540;28;20061;-81
2022/07/24 07:44:55;;;;;;;12.63;6.72;;;;;;;;;;5055533;28;20041;-81
2022/07/24 07:47:40;;;;;;;12.27;7.90;;;;;;;;;;5047049;28;20426;-81
2022/07/24 07:50:25;;;;;;;14.15;7.05;;;;;;;;;;5061827;28;20052;-81
2022/07/24 07:53:11;;;;;;;399.15;349.27;;;;;;;;;;5055417;28;20045;-80
2022/07/24 07:55:56;;;;;;;27.55;17.75;;;;;;;;;;5054974;28;20044;-80
2022/07/24 07:58:42;;;;;;;54.83;40.42;;;;;;;;;;5054974;28;20049;-80
2022/07/24 08:01:27;;;;;;;25.08;15.60;;;;;;;;;;5054481;28;20486;-82
2022/07/24 08:04:13;;;;;;;23.20;13.90;;;;;;;;;;5054998;28;20045;-79
2022/07/24 08:06:58;;;;;;;20.38;7.90;;;;;;;;;;5061923;28;20041;-83
2022/07/24 08:09:44;;;;;;;12.63;7.70;;;;;;;;;;5055166;28;20053;-79
2022/07/24 08:12:30;;;;;;;25.00;7.00;;;;;;;;;;5054984;28;20486;-80
2022/07/24 08:15:16;;;;;;;17.48;6.57;;;;;;;;;;5053820;28;20049;-80
2022/07/24 08:18:02;;;;;;;12.32;6.88;;;;;;;;;;5053959;28;20049;-80
2022/07/24 08:20:48;;;;;;;13.05;6.95;;;;;;;;;;5054608;28;20056;-80
2022/07/24 08:23:33;;;;;;;14.60;7.07;;;;;;;;;;5061163;28;20040;-80
2022/07/24 08:26:18;;;;;;;15.13;7.60;;;;;;;;;;5054749;28;20041;-81
2022/07/24 08:29:05;;;;;;;17.50;7.63;;;;;;;;;;5061723;28;20048;-80
2022/07/24 08:31:51;;;;;;;19.63;8.20;;;;;;;;;;5054231;28;20433;-79
2022/07/24 08:34:36;;;;;;;18.48;7.78;;;;;;;;;;5054562;28;20045;-80
2022/07/24 08:37:22;;;;;;;18.45;7.28;;;;;;;;;;5061900;28;20044;-80
2022/07/24 08:40:09;;;;;;;11.43;7.22;;;;;;;;;;5054310;28;20049;-81
2022/07/24 08:42:54;;;;;;;14.48;7.90;;;;;;;;;;5054405;28;20037;-79
2022/07/24 08:45:41;;;;;;;18.88;7.95;;;;;;;;;;5054162;28;20048;-79
2022/07/24 08:48:27;;;;;;;8.52;6.43;;;;;;;;;;5061854;28;20041;-79
2022/07/24 08:51:14;;;;;;;18.90;7.40;;;;;;;;;;5061161;28;20053;-81
2022/07/24 08:53:59;;;;;;;14.60;7.20;;;;;;;;;;5061027;28;20048;-80
2022/07/24 08:56:45;;;;;;;14.95;9.20;;;;;;;;;;5054501;28;20049;-80
2022/07/24 08:59:31;;;;;;;90.78;64.57;;;;;;;;;;5057698;28;20041;-81
2022/07/24 09:02:18;;;;;;;100.47;76.45;;;;;;;;;;5053806;28;20041;-81
2022/07/24 09:05:04;;;;;;;39.13;21.83;;;;;;;;;;5060607;28;20045;-81
2022/07/24 09:07:49;;;;;;;12.63;6.82;;;;;;;;;;5054266;28;20049;-83
2022/07/24 09:10:35;;;;;;;13.98;7.32;;;;;;;;;;5060528;28;20044;-81
2022/07/24 09:13:25;;;;;;;13.52;7.57;;;;;;;;;;5072537;28;20041;-79
2022/07/24 09:16:22;;;;;;;14.00;6.90;;;;;;;;;;5067049;28;20045;-80
2022/07/24 09:19:08;;;;;;;15.27;8.00;;;;;;;;;;5054538;28;20057;-81
2022/07/24 09:21:54;;;;;;;16.73;7.97;;;;;;;;;;5053874;28;20048;-80
2022/07/24 09:24:40;;;;;;;16.13;7.78;;;;;;;;;;5054040;28;20044;-80
2022/07/24 09:27:25;;;;;;;18.70;8.50;;;;;;;;;;5060618;28;20045;-81
2022/07/24 09:30:37;;;;;;;12.30;6.75;;;;;;;;;;5060838;28;20402;-80
2022/07/24 09:33:24;;;;;;;13.70;7.15;;;;;;;;;;5054444;28;20049;-83
2022/07/24 09:36:13;;;;;;;13.50;7.93;;;;;;;;;;5054317;28;20045;-81
2022/07/24 09:39:00;;;;;;;15.88;8.07;;;;;;;;;;5053778;28;20147;-82
2022/07/24 09:41:54;;;;;;;12.15;6.88;;;;;;;;;;5039001;28;20155;-79
2022/07/24 09:44:39;;;;;;;20.58;7.70;;;;;;;;;;5053310;28;20053;-84
2022/07/24 09:47:24;;;;;;;10.10;7.13;;;;;;;;;;5053826;28;20037;-84
2022/07/24 09:50:16;;;;;;;14.70;7.68;;;;;;;;;;5059465;28;20049;-81
2022/07/24 09:53:03;;;;;;;9.82;7.18;;;;;;;;;;5053340;28;20053;-83
2022/07/24 09:56:01;;;;;;;11.35;7.32;;;;;;;;;;5053526;28;20417;-81
2022/07/24 09:58:46;;;;;;;9.73;7.35;;;;;;;;;;5053249;28;20045;-80
2022/07/24 10:01:33;;;;;;;14.68;7.45;;;;;;;;;;5054217;28;20049;-82
2022/07/24 10:04:20;;;;;;;13.23;7.45;;;;;;;;;;5053024;28;20465;-84
2022/07/24 10:07:12;;;;;;;14.35;7.07;;;;;;;;;;5052930;28;20497;-82
2022/07/24 10:09:59;;;;;;;11.52;7.15;;;;;;;;;;5060480;28;20386;-81
2022/07/24 10:12:46;;;;;;;11.25;7.22;;;;;;;;;;5053322;28;20045;-81
2022/07/24 10:15:34;;;;;;;11.45;7.30;;;;;;;;;;5053201;28;20049;-83
2022/07/24 10:18:19;;;;;;;8.85;6.38;;;;;;;;;;5053077;28;20045;-82
2022/07/24 10:21:10;;;;;;;10.57;7.38;;;;;;;;;;5053626;28;20049;-81
2022/07/24 10:24:06;;;;;;;12.93;6.93;;;;;;;;;;5063503;28;20041;-84
2022/07/24 10:26:53;;;;;;;18.30;7.40;;;;;;;;;;5054442;28;20482;-82
2022/07/24 10:29:39;;;;;;;13.30;6.93;;;;;;;;;;5057218;28;20296;-81
2022/07/24 10:32:26;;;;;;;14.48;6.88;;;;;;;;;;5058113;28;20045;-81
2022/07/24 10:35:24;;;;;;;11.80;6.90;;;;;;;;;;5056985;28;20482;-81
2022/07/24 10:38:20;;;;;;;12.48;7.13;;;;;;;;;;5064349;28;20041;-81
2022/07/24 10:41:14;;;;;;;15.25;7.07;;;;;;;;;;5063450;28;20053;-81
2022/07/24 10:44:14;;;;;;;11.07;6.88;;;;;;;;;;5057139;28;20505;-81
2022/07/24 10:47:16;;;;;;;12.10;6.63;;;;;;;;;;5056411;28;20048;-81
2022/07/24 10:50:04;;;;;;;12.75;7.25;;;;;;;;;;5063200;28;20041;-83
2022/07/24 10:52:49;;;;;;;10.75;7.43;;;;;;;;;;5057115;28;20041;-83
2022/07/24 10:55:35;;;;;;;11.48;7.57;;;;;;;;;;5041843;28;20049;-81
2022/07/24 10:58:21;;;;;;;12.75;6.88;;;;;;;;;;5056841;28;20490;-82
2022/07/24 11:01:28;;;;;;;9.77;7.05;;;;;;;;;;5056173;28;20041;-86
2022/07/24 11:04:22;;;;;;;15.18;7.43;;;;;;;;;;5056301;28;20053;-83
2022/07/24 11:07:10;;;;;;;12.38;7.00;;;;;;;;;;5063335;28;20048;-83
2022/07/24 11:10:00;;;;;;;15.35;8.05;;;;;;;;;;5056140;28;20041;-82
2022/07/24 11:12:47;;;;;;;12.10;6.57;;;;;;;;;;5056608;28;20057;-83
2022/07/24 11:16:11;;;;;;;11.57;6.43;;;;;;;;;;5056395;28;20048;-84
2022/07/24 11:18:56;;;;;;;13.65;6.88;;;;;;;;;;5056693;28;20045;-80
2022/07/24 11:21:46;;;;;;;11.50;6.93;;;;;;;;;;5059277;28;20041;-81
2022/07/24 11:24:32;;;;;;;8.75;7.15;;;;;;;;;;5041333;28;20397;-83
2022/07/24 11:27:20;;;;;;;15.02;7.70;;;;;;;;;;5056496;28;20037;-83
2022/07/24 11:30:05;;;;;;;11.95;7.32;;;;;;;;;;5055874;28;20045;-85
2022/07/24 11:32:51;;;;;;;18.98;7.60;;;;;;;;;;5079327;28;20060;-82
2022/07/24 11:35:38;;;;;;;13.60;7.07;;;;;;;;;;5062256;28;20044;-84
2022/07/24 11:38:28;;;;;;;19.27;5.45;;;;;;;;;;5056340;28;20049;-83
2022/07/24 11:41:17;;;;;;;22.50;6.13;;;;;;;;;;5055446;28;20044;-83
2022/07/24 11:44:03;;;;;;;25.60;6.40;;;;;;;;;;5055490;28;20044;-82
2022/07/24 11:46:48;;;;;;;10.45;6.60;;;;;;;;;;5061792;28;20040;-82
2022/07/24 11:49:48;;;;;;;13.27;7.47;;;;;;;;;;5055329;28;20053;-83
2022/07/24 11:52:37;;;;;;;9.35;6.80;;;;;;;;;;5055507;28;20049;-84
2022/07/24 11:55:24;;;;;;;9.40;7.30;;;;;;;;;;5054845;28;20053;-80
2022/07/24 11:58:10;;;;;;;9.65;5.22;;;;;;;;;;5055500;28;20045;-81
2022/07/24 12:00:56;;;;;;;12.30;7.32;;;;;;;;;;5055729;28;20045;-82
2022/07/24 12:03:59;;;;;;;11.25;6.88;;;;;;;;;;5056474;28;20045;-80
2022/07/24 12:06:45;;;;;;;7.60;6.70;;;;;;;;;;5054987;28;20485;-81
2022/07/24 12:09:30;;;;;;;18.33;6.07;;;;;;;;;;5055007;28;20040;-81
2022/07/24 12:12:34;;;;;;;12.68;5.97;;;;;;;;;;5055055;28;20041;-80
2022/07/24 12:15:20;;;;;;;8.93;5.80;;;;;;;;;;5055439;28;20049;-82
2022/07/24 12:18:08;;;;;;;10.23;5.85;;;;;;;;;;5056489;28;20037;-81
2022/07/24 12:20:59;;;;;;;6.82;5.28;;;;;;;;;;5054876;28;20053;-81
2022/07/24 12:23:46;;;;;;;8.20;5.55;;;;;;;;;;5055028;28;20053;-81
2022/07/24 12:26:32;;;;;;;11.90;6.43;;;;;;;;;;5054799;28;20045;-80
2022/07/24 12:29:17;;;;;;;9.20;6.90;;;;;;;;;;5055182;28;20394;-80
2022/07/24 12:32:16;;;;;;;10.95;6.68;;;;;;;;;;5061102;28;20406;-81
2022/07/24 12:35:11;;;;;;;10.85;6.50;;;;;;;;;;5055174;28;20041;-81
2022/07/24 12:37:58;;;;;;;7.30;5.65;;;;;;;;;;5054776;28;20036;-80
2022/07/24 12:40:43;;;;;;;7.72;5.60;;;;;;;;;;5060470;28;20037;-80
2022/07/24 12:43:29;;;;;;;10.07;5.80;;;;;;;;;;5058408;28;20084;-80
2022/07/24 12:46:16;;;;;;;9.27;5.13;;;;;;;;;;5054593;28;20048;-80
2022/07/24 12:49:04;;;;;;;7.72;4.70;;;;;;;;;;5061151;28;20494;-80
2022/07/24 12:51:59;;;;;;;7.60;4.82;;;;;;;;;;5053769;28;20036;-80
2022/07/24 12:54:46;;;;;;;6.60;5.10;;;;;;;;;;5054226;28;20045;-81
2022/07/24 12:57:33;;;;;;;6.03;4.72;;;;;;;;;;5061254;28;20041;-81
2022/07/24 13:00:19;;;;;;;6.15;4.60;;;;;;;;;;5059725;28;20033;-81
2022/07/24 13:03:04;;;;;;;8.57;4.82;;;;;;;;;;5053620;28;20053;-81
2022/07/24 13:05:55;;;;;;;8.93;5.10;;;;;;;;;;5053195;28;20037;-80
2022/07/24 13:08:40;;;;;;;9.70;4.97;;;;;;;;;;5060246;28;20045;-79
2022/07/24 13:11:26;;;;;;;6.93;3.50;;;;;;;;;;5060958;28;20044;-80
2022/07/24 13:14:13;;;;;;;7.22;4.65;;;;;;;;;;5054221;28;20056;-79
2022/07/24 13:17:09;;;;;;;6.75;4.68;;;;;;;;;;5053728;28;20486;-80
2022/07/24 13:19:54;;;;;;;8.98;4.45;;;;;;;;;;5060240;28;20393;-79
2022/07/24 13:22:40;;;;;;;7.40;3.83;;;;;;;;;;5053867;28;20402;-80
2022/07/24 13:25:25;;;;;;;7.43;4.63;;;;;;;;;;5060576;28;20041;-80
2022/07/24 13:28:11;;;;;;;5.25;4.53;;;;;;;;;;5053939;28;20052;-80
2022/07/24 13:30:57;;;;;;;8.38;4.20;;;;;;;;;;5060417;28;20355;-81
2022/07/24 13:33:42;;;;;;;9.73;4.88;;;;;;;;;;5063657;28;20057;-80
2022/07/24 13:36:28;;;;;;;10.25;3.90;;;;;;;;;;5055271;28;20056;-81
2022/07/24 13:39:14;;;;;;;11.98;4.18;;;;;;;;;;5060388;28;20045;-81
2022/07/24 13:41:59;;;;;;;8.40;4.28;;;;;;;;;;5053654;28;20045;-81
2022/07/24 13:44:45;;;;;;;12.13;5.18;;;;;;;;;;5054399;28;20049;-80
2022/07/24 13:47:30;;;;;;;11.40;5.85;;;;;;;;;;5064004;28;20049;-79
2022/07/24 13:50:16;;;;;;;8.23;4.75;;;;;;;;;;5067861;28;20045;-79
2022/07/24 13:53:01;;;;;;;9.05;3.85;;;;;;;;;;5052843;28;20045;-79
2022/07/24 13:55:47;;;;;;;11.13;9.25;;;;;;;;;;5060301;28;20498;-80
2022/07/24 13:58:35;;;;;;;8.82;5.05;;;;;;;;;;5052926;28;20045;-80
2022/07/24 14:01:20;;;;;;;35.10;28.20;;;;;;;;;;5053641;28;20425;-79
2022/07/24 14:04:08;;;;;;;46.30;33.17;;;;;;;;;;5057165;28;20486;-79
2022/07/24 14:06:54;;;;;;;15.52;9.75;;;;;;;;;;5058321;28;20409;-79
2022/07/24 14:09:40;;;;;;;6.28;4.32;;;;;;;;;;5057424;28;20478;-78
2022/07/24 14:12:25;;;;;;;7.00;4.55;;;;;;;;;;5056799;28;20052;-79
2022/07/24 14:15:14;;;;;;;4.60;4.05;;;;;;;;;;5063926;28;20045;-80
2022/07/24 14:18:00;;;;;;;13.35;4.47;;;;;;;;;;5064397;28;20037;-79
2022/07/24 14:20:45;;;;;;;10.77;4.45;;;;;;;;;;5056741;28;20393;-79
2022/07/24 14:23:31;;;;;;;7.20;4.20;;;;;;;;;;5057211;28;20052;-79
2022/07/24 14:26:18;;;;;;;7.40;4.80;;;;;;;;;;5057272;28;20048;-79
2022/07/24 14:29:03;;;;;;;5.38;4.30;;;;;;;;;;5057572;28;20045;-79
2022/07/24 14:31:49;;;;;;;5.82;4.60;;;;;;;;;;5058970;28;20037;-79
2022/07/24 14:34:34;;;;;;;11.07;6.00;;;;;;;;;;5057167;28;20049;-79
2022/07/24 14:37:20;;;;;;;5.25;4.13;;;;;;;;;;5063688;28;20049;-80
2022/07/24 14:40:07;;;;;;;7.35;4.93;;;;;;;;;;5056303;28;20044;-80
2022/07/24 14:42:54;;;;;;;7.43;4.80;;;;;;;;;;5056603;28;20053;-79
2022/07/24 14:45:40;;;;;;;11.25;5.15;;;;;;;;;;5066148;28;20041;-79
2022/07/24 14:48:26;;;;;;;6.22;4.63;;;;;;;;;;5057005;28;20045;-80
2022/07/24 14:51:12;;;;;;;8.60;4.65;;;;;;;;;;5056512;28;20041;-79
2022/07/24 14:53:57;;;;;;;10.32;4.85;;;;;;;;;;5056454;28;20486;-80
2022/07/24 14:56:43;;;;;;;8.77;4.72;;;;;;;;;;5056358;28;20044;-82
2022/07/24 14:59:28;;;;;;;7.18;4.88;;;;;;;;;;5056683;28;20382;-80
2022/07/24 15:02:14;;;;;;;5.43;4.75;;;;;;;;;;5056601;28;20041;-80
2022/07/24 15:05:00;;;;;;;6.28;4.40;;;;;;;;;;5063617;28;20037;-80
2022/07/24 15:07:45;;;;;;;9.10;5.30;;;;;;;;;;5055854;28;20049;-79
2022/07/24 15:10:31;;;;;;;9.90;4.85;;;;;;;;;;5055587;28;20044;-79
2022/07/24 15:13:17;;;;;;;8.02;4.75;;;;;;;;;;5054975;28;20494;-80
2022/07/24 15:16:02;;;;;;;6.65;4.90;;;;;;;;;;5062082;28;20482;-80
2022/07/24 15:18:48;;;;;;;8.35;4.05;;;;;;;;;;5055018;28;20049;-79
2022/07/24 15:21:33;;;;;;;7.38;5.57;;;;;;;;;;5055882;28;20401;-80
2022/07/24 15:24:19;;;;;;;11.18;5.55;;;;;;;;;;5056239;28;20041;-80
2022/07/24 15:27:04;;;;;;;12.02;5.78;;;;;;;;;;5062703;28;20045;-82
2022/07/24 15:29:50;;;;;;;7.70;5.32;;;;;;;;;;5056299;28;20041;-80
2022/07/24 15:32:35;;;;;;;10.55;5.47;;;;;;;;;;5055993;28;20056;-79
2022/07/24 15:35:21;;;;;;;6.18;4.93;;;;;;;;;;5055012;28;20045;-80
2022/07/24 15:38:07;;;;;;;8.73;5.82;;;;;;;;;;5055902;28;20041;-80
2022/07/24 15:40:52;;;;;;;8.05;6.00;;;;;;;;;;5055430;28;20044;-80
2022/07/24 15:43:38;;;;;;;12.73;6.15;;;;;;;;;;5055214;28;20409;-80
2022/07/24 15:46:24;;;;;;;8.23;6.20;;;;;;;;;;5062562;28;20053;-80
2022/07/24 15:49:09;;;;;;;12.07;6.38;;;;;;;;;;5055512;28;20037;-80
2022/07/24 15:51:55;;;;;;;10.60;6.30;;;;;;;;;;5062238;28;20037;-80
2022/07/24 15:54:40;;;;;;;8.85;6.15;;;;;;;;;;5055726;28;20052;-80
2022/07/24 15:57:26;;;;;;;9.52;5.90;;;;;;;;;;5058652;28;20045;-80
2022/07/24 16:00:12;;;;;;;8.48;5.80;;;;;;;;;;5063336;28;20389;-80
2022/07/24 16:02:57;;;;;;;6.63;5.55;;;;;;;;;;5063917;28;20037;-81
2022/07/24 16:05:43;;;;;;;12.88;5.90;;;;;;;;;;5073525;28;20044;-78
2022/07/24 16:08:28;;;;;;;6.18;5.10;;;;;;;;;;5063010;28;20049;-81
2022/07/24 16:11:13;;;;;;;7.45;5.70;;;;;;;;;;5054934;28;20053;-81
2022/07/24 16:13:59;;;;;;;12.32;6.10;;;;;;;;;;5053517;28;20486;-79
2022/07/24 16:16:45;;;;;;;11.13;6.20;;;;;;;;;;5054287;28;20400;-80
2022/07/24 16:19:31;;;;;;;14.25;5.30;;;;;;;;;;5055275;28;20037;-81
2022/07/24 16:22:17;;;;;;;11.90;4.97;;;;;;;;;;5055030;28;20502;-81
2022/07/24 16:25:04;;;;;;;9.93;4.93;;;;;;;;;;5061473;28;20401;-80
2022/07/24 16:27:49;;;;;;;7.07;4.80;;;;;;;;;;5055338;28;20052;-80